sensor_id;sensor_type;location;lat;lon;timestamp;P1;durP1;ratioP1;P2;durP2;ratioP2
76167;SDS011;64927;48.214;16.378;2023-04-25T00:00:52;2.47;;;1.42;;
76167;SDS011;64927;48.214;16.378;2023-04-25T00:03:17;2.72;;;2.00;;
76167;SDS011;64927;48.214;16.378;2023-04-25T00:05:46;1.63;;;1.40;;
76167;SDS011;64927;48.214;16.378;2023-04-25T00:08:13;1.65;;;1.30;;
76167;SDS011;64927;48.214;16.378;2023-04-25T00:10:39;1.50;;;1.17;;
76167;SDS011;64927;48.214;16.378;2023-04-25T00:13:05;1.95;;;1.05;;
76167;SDS011;64927;48.214;16.378;2023-04-25T00:15:31;2.53;;;1.30;;
76167;SDS011;64927;48.214;16.378;2023-04-25T00:17:59;1.63;;;1.30;;
76167;SDS011;64927;48.214;16.378;2023-04-25T00:20:25;2.42;;;1.48;;
76167;SDS011;64927;48.214;16.378;2023-04-25T00:22:53;2.13;;;1.35;;
76167;SDS011;64927;48.214;16.378;2023-04-25T00:25:18;2.30;;;1.30;;
76167;SDS011;64927;48.214;16.378;2023-04-25T00:27:44;2.20;;;1.48;;
76167;SDS011;64927;48.214;16.378;2023-04-25T00:30:10;1.70;;;1.42;;
76167;SDS011;64927;48.214;16.378;2023-04-25T00:32:36;2.78;;;1.30;;
76167;SDS011;64927;48.214;16.378;2023-04-25T00:35:04;1.50;;;1.10;;
76167;SDS011;64927;48.214;16.378;2023-04-25T00:37:33;2.95;;;1.25;;
76167;SDS011;64927;48.214;16.378;2023-04-25T00:39:58;1.30;;;1.13;;
76167;SDS011;64927;48.214;16.378;2023-04-25T00:42:24;4.57;;;1.42;;
76167;SDS011;64927;48.214;16.378;2023-04-25T00:44:51;3.65;;;1.10;;
76167;SDS011;64927;48.214;16.378;2023-04-25T00:47:20;2.85;;;1.40;;
76167;SDS011;64927;48.214;16.378;2023-04-25T00:49:46;2.35;;;1.67;;
76167;SDS011;64927;48.214;16.378;2023-04-25T00:52:14;5.22;;;1.20;;
76167;SDS011;64927;48.214;16.378;2023-04-25T00:54:39;1.77;;;1.20;;
76167;SDS011;64927;48.214;16.378;2023-04-25T00:57:05;1.80;;;1.60;;
76167;SDS011;64927;48.214;16.378;2023-04-25T00:59:31;1.90;;;1.23;;
76167;SDS011;64927;48.214;16.378;2023-04-25T01:02:01;2.65;;;1.40;;
76167;SDS011;64927;48.214;16.378;2023-04-25T01:04:27;1.10;;;1.00;;
76167;SDS011;64927;48.214;16.378;2023-04-25T01:06:53;3.25;;;1.30;;
76167;SDS011;64927;48.214;16.378;2023-04-25T01:09:19;4.15;;;1.50;;
76167;SDS011;64927;48.214;16.378;2023-04-25T01:11:45;1.70;;;1.60;;
76167;SDS011;64927;48.214;16.378;2023-04-25T01:14:11;2.75;;;1.73;;
76167;SDS011;64927;48.214;16.378;2023-04-25T01:16:37;1.38;;;1.15;;
76167;SDS011;64927;48.214;16.378;2023-04-25T01:19:04;2.10;;;1.42;;
76167;SDS011;64927;48.214;16.378;2023-04-25T01:21:38;3.65;;;1.58;;
76167;SDS011;64927;48.214;16.378;2023-04-25T01:24:04;2.45;;;1.50;;
76167;SDS011;64927;48.214;16.378;2023-04-25T01:26:31;3.13;;;1.75;;
76167;SDS011;64927;48.214;16.378;2023-04-25T01:28:57;1.65;;;1.23;;
76167;SDS011;64927;48.214;16.378;2023-04-25T01:31:23;3.28;;;1.58;;
76167;SDS011;64927;48.214;16.378;2023-04-25T01:33:50;2.85;;;1.70;;
76167;SDS011;64927;48.214;16.378;2023-04-25T01:36:18;2.85;;;1.85;;
76167;SDS011;64927;48.214;16.378;2023-04-25T01:38:46;2.47;;;1.30;;
76167;SDS011;64927;48.214;16.378;2023-04-25T01:41:13;3.15;;;1.50;;
76167;SDS011;64927;48.214;16.378;2023-04-25T01:43:39;4.30;;;1.38;;
76167;SDS011;64927;48.214;16.378;2023-04-25T01:46:05;3.28;;;1.50;;
76167;SDS011;64927;48.214;16.378;2023-04-25T01:48:31;2.92;;;1.52;;
76167;SDS011;64927;48.214;16.378;2023-04-25T01:50:57;2.22;;;1.40;;
76167;SDS011;64927;48.214;16.378;2023-04-25T01:53:23;2.25;;;1.50;;
76167;SDS011;64927;48.214;16.378;2023-04-25T01:55:49;2.00;;;1.25;;
76167;SDS011;64927;48.214;16.378;2023-04-25T01:58:17;4.25;;;1.70;;
76167;SDS011;64927;48.214;16.378;2023-04-25T02:00:42;2.50;;;1.70;;
76167;SDS011;64927;48.214;16.378;2023-04-25T02:03:08;1.80;;;1.42;;
76167;SDS011;64927;48.214;16.378;2023-04-25T02:05:36;1.50;;;1.27;;
76167;SDS011;64927;48.214;16.378;2023-04-25T02:08:11;1.70;;;1.60;;
76167;SDS011;64927;48.214;16.378;2023-04-25T02:10:39;2.22;;;1.65;;
76167;SDS011;64927;48.214;16.378;2023-04-25T02:13:05;3.58;;;1.60;;
76167;SDS011;64927;48.214;16.378;2023-04-25T02:15:31;2.10;;;1.83;;
76167;SDS011;64927;48.214;16.378;2023-04-25T02:17:56;1.40;;;1.23;;
76167;SDS011;64927;48.214;16.378;2023-04-25T02:20:23;2.97;;;1.50;;
76167;SDS011;64927;48.214;16.378;2023-04-25T02:22:49;1.77;;;1.63;;
76167;SDS011;64927;48.214;16.378;2023-04-25T02:25:16;2.97;;;1.80;;
76167;SDS011;64927;48.214;16.378;2023-04-25T02:27:42;4.03;;;2.10;;
76167;SDS011;64927;48.214;16.378;2023-04-25T02:30:08;3.80;;;2.35;;
76167;SDS011;64927;48.214;16.378;2023-04-25T02:32:34;2.03;;;1.67;;
76167;SDS011;64927;48.214;16.378;2023-04-25T02:35:00;1.88;;;1.50;;
76167;SDS011;64927;48.214;16.378;2023-04-25T02:37:38;2.55;;;1.95;;
76167;SDS011;64927;48.214;16.378;2023-04-25T02:40:05;3.42;;;1.80;;
76167;SDS011;64927;48.214;16.378;2023-04-25T02:42:33;2.20;;;1.58;;
76167;SDS011;64927;48.214;16.378;2023-04-25T02:44:59;3.13;;;1.75;;
76167;SDS011;64927;48.214;16.378;2023-04-25T02:47:25;3.15;;;1.70;;
76167;SDS011;64927;48.214;16.378;2023-04-25T02:49:52;2.92;;;1.55;;
76167;SDS011;64927;48.214;16.378;2023-04-25T02:52:20;6.25;;;1.90;;
76167;SDS011;64927;48.214;16.378;2023-04-25T02:54:46;4.28;;;2.10;;
76167;SDS011;64927;48.214;16.378;2023-04-25T02:57:14;4.35;;;1.88;;
76167;SDS011;64927;48.214;16.378;2023-04-25T02:59:40;2.10;;;1.70;;
76167;SDS011;64927;48.214;16.378;2023-04-25T03:02:05;2.75;;;2.15;;
76167;SDS011;64927;48.214;16.378;2023-04-25T03:04:31;4.38;;;2.28;;
76167;SDS011;64927;48.214;16.378;2023-04-25T03:06:58;2.30;;;2.00;;
76167;SDS011;64927;48.214;16.378;2023-04-25T03:09:24;3.25;;;1.80;;
76167;SDS011;64927;48.214;16.378;2023-04-25T03:11:49;3.67;;;2.22;;
76167;SDS011;64927;48.214;16.378;2023-04-25T03:14:18;1.90;;;1.70;;
76167;SDS011;64927;48.214;16.378;2023-04-25T03:16:43;3.45;;;2.13;;
76167;SDS011;64927;48.214;16.378;2023-04-25T03:19:10;4.97;;;2.05;;
76167;SDS011;64927;48.214;16.378;2023-04-25T03:21:38;2.90;;;1.75;;
76167;SDS011;64927;48.214;16.378;2023-04-25T03:24:04;2.53;;;1.92;;
76167;SDS011;64927;48.214;16.378;2023-04-25T03:26:32;5.18;;;1.92;;
76167;SDS011;64927;48.214;16.378;2023-04-25T03:29:00;3.05;;;2.20;;
76167;SDS011;64927;48.214;16.378;2023-04-25T03:31:25;4.63;;;2.13;;
76167;SDS011;64927;48.214;16.378;2023-04-25T03:33:51;3.22;;;1.88;;
76167;SDS011;64927;48.214;16.378;2023-04-25T03:36:17;2.25;;;1.88;;
76167;SDS011;64927;48.214;16.378;2023-04-25T03:38:42;3.22;;;2.08;;
76167;SDS011;64927;48.214;16.378;2023-04-25T03:41:08;2.00;;;1.75;;
76167;SDS011;64927;48.214;16.378;2023-04-25T03:43:33;3.25;;;2.00;;
76167;SDS011;64927;48.214;16.378;2023-04-25T03:46:01;2.63;;;1.88;;
76167;SDS011;64927;48.214;16.378;2023-04-25T03:48:27;2.88;;;1.98;;
76167;SDS011;64927;48.214;16.378;2023-04-25T03:50:53;2.88;;;1.63;;
76167;SDS011;64927;48.214;16.378;2023-04-25T03:53:19;4.03;;;2.00;;
76167;SDS011;64927;48.214;16.378;2023-04-25T03:55:45;4.25;;;2.70;;
76167;SDS011;64927;48.214;16.378;2023-04-25T03:58:11;3.10;;;2.30;;
76167;SDS011;64927;48.214;16.378;2023-04-25T04:00:36;3.25;;;2.00;;
76167;SDS011;64927;48.214;16.378;2023-04-25T04:03:04;4.78;;;2.35;;
76167;SDS011;64927;48.214;16.378;2023-04-25T04:05:30;3.13;;;2.00;;
76167;SDS011;64927;48.214;16.378;2023-04-25T04:07:58;6.13;;;2.25;;
76167;SDS011;64927;48.214;16.378;2023-04-25T04:10:26;3.80;;;1.65;;
76167;SDS011;64927;48.214;16.378;2023-04-25T04:12:54;3.42;;;2.13;;
76167;SDS011;64927;48.214;16.378;2023-04-25T04:15:20;8.23;;;2.20;;
76167;SDS011;64927;48.214;16.378;2023-04-25T04:17:46;2.88;;;2.25;;
76167;SDS011;64927;48.214;16.378;2023-04-25T04:20:12;3.15;;;1.90;;
76167;SDS011;64927;48.214;16.378;2023-04-25T04:22:38;3.13;;;1.90;;
76167;SDS011;64927;48.214;16.378;2023-04-25T04:25:04;2.50;;;1.55;;
76167;SDS011;64927;48.214;16.378;2023-04-25T04:27:31;6.35;;;2.13;;
76167;SDS011;64927;48.214;16.378;2023-04-25T04:29:59;2.55;;;2.00;;
76167;SDS011;64927;48.214;16.378;2023-04-25T04:32:25;3.50;;;2.35;;
76167;SDS011;64927;48.214;16.378;2023-04-25T04:34:55;4.00;;;1.90;;
76167;SDS011;64927;48.214;16.378;2023-04-25T04:37:24;3.08;;;2.25;;
76167;SDS011;64927;48.214;16.378;2023-04-25T04:39:52;4.28;;;1.98;;
76167;SDS011;64927;48.214;16.378;2023-04-25T04:42:17;3.65;;;2.10;;
76167;SDS011;64927;48.214;16.378;2023-04-25T04:44:43;3.53;;;2.42;;
76167;SDS011;64927;48.214;16.378;2023-04-25T04:47:09;5.75;;;3.03;;
76167;SDS011;64927;48.214;16.378;2023-04-25T04:49:35;3.00;;;2.15;;
76167;SDS011;64927;48.214;16.378;2023-04-25T04:52:01;4.50;;;2.40;;
76167;SDS011;64927;48.214;16.378;2023-04-25T04:54:27;3.15;;;2.38;;
76167;SDS011;64927;48.214;16.378;2023-04-25T04:56:52;2.92;;;2.25;;
76167;SDS011;64927;48.214;16.378;2023-04-25T04:59:18;4.47;;;2.80;;
76167;SDS011;64927;48.214;16.378;2023-04-25T05:01:44;3.88;;;2.22;;
76167;SDS011;64927;48.214;16.378;2023-04-25T05:04:09;4.28;;;2.58;;
76167;SDS011;64927;48.214;16.378;2023-04-25T05:06:35;3.40;;;1.90;;
76167;SDS011;64927;48.214;16.378;2023-04-25T05:09:01;2.67;;;2.13;;
76167;SDS011;64927;48.214;16.378;2023-04-25T05:11:28;3.67;;;2.47;;
76167;SDS011;64927;48.214;16.378;2023-04-25T05:13:56;2.45;;;2.17;;
76167;SDS011;64927;48.214;16.378;2023-04-25T05:16:22;2.90;;;2.10;;
76167;SDS011;64927;48.214;16.378;2023-04-25T05:18:48;4.05;;;2.22;;
76167;SDS011;64927;48.214;16.378;2023-04-25T05:21:14;4.78;;;3.10;;
76167;SDS011;64927;48.214;16.378;2023-04-25T05:23:39;2.35;;;1.67;;
76167;SDS011;64927;48.214;16.378;2023-04-25T05:26:05;3.95;;;2.33;;
76167;SDS011;64927;48.214;16.378;2023-04-25T05:28:38;3.42;;;2.10;;
76167;SDS011;64927;48.214;16.378;2023-04-25T05:31:06;3.70;;;2.25;;
76167;SDS011;64927;48.214;16.378;2023-04-25T05:33:31;5.78;;;2.63;;
76167;SDS011;64927;48.214;16.378;2023-04-25T05:35:57;5.93;;;3.25;;
76167;SDS011;64927;48.214;16.378;2023-04-25T05:38:25;4.40;;;3.08;;
76167;SDS011;64927;48.214;16.378;2023-04-25T05:40:51;5.93;;;3.00;;
76167;SDS011;64927;48.214;16.378;2023-04-25T05:43:17;4.75;;;2.80;;
76167;SDS011;64927;48.214;16.378;2023-04-25T05:45:42;5.07;;;3.70;;
76167;SDS011;64927;48.214;16.378;2023-04-25T05:48:08;5.45;;;2.80;;
76167;SDS011;64927;48.214;16.378;2023-04-25T05:50:34;4.40;;;2.90;;
76167;SDS011;64927;48.214;16.378;2023-04-25T05:53:00;3.00;;;2.35;;
76167;SDS011;64927;48.214;16.378;2023-04-25T05:55:25;7.20;;;2.50;;
76167;SDS011;64927;48.214;16.378;2023-04-25T05:57:51;3.60;;;2.53;;
76167;SDS011;64927;48.214;16.378;2023-04-25T06:00:17;3.97;;;2.20;;
76167;SDS011;64927;48.214;16.378;2023-04-25T06:02:43;3.10;;;2.35;;
76167;SDS011;64927;48.214;16.378;2023-04-25T06:05:11;3.95;;;2.60;;
76167;SDS011;64927;48.214;16.378;2023-04-25T06:07:37;3.35;;;2.00;;
76167;SDS011;64927;48.214;16.378;2023-04-25T06:10:03;8.05;;;2.92;;
76167;SDS011;64927;48.214;16.378;2023-04-25T06:12:31;4.10;;;2.28;;
76167;SDS011;64927;48.214;16.378;2023-04-25T06:14:58;4.80;;;3.40;;
76167;SDS011;64927;48.214;16.378;2023-04-25T06:17:24;5.57;;;2.53;;
76167;SDS011;64927;48.214;16.378;2023-04-25T06:19:49;4.88;;;2.47;;
76167;SDS011;64927;48.214;16.378;2023-04-25T06:22:15;4.30;;;1.90;;
76167;SDS011;64927;48.214;16.378;2023-04-25T06:24:41;2.60;;;2.17;;
76167;SDS011;64927;48.214;16.378;2023-04-25T06:27:06;3.40;;;2.15;;
76167;SDS011;64927;48.214;16.378;2023-04-25T06:29:32;4.85;;;2.30;;
76167;SDS011;64927;48.214;16.378;2023-04-25T06:31:58;5.35;;;2.38;;
76167;SDS011;64927;48.214;16.378;2023-04-25T06:34:23;5.20;;;1.98;;
76167;SDS011;64927;48.214;16.378;2023-04-25T06:36:49;2.65;;;2.05;;
76167;SDS011;64927;48.214;16.378;2023-04-25T06:39:15;4.85;;;2.15;;
76167;SDS011;64927;48.214;16.378;2023-04-25T06:41:41;5.22;;;2.10;;
76167;SDS011;64927;48.214;16.378;2023-04-25T06:44:10;3.55;;;2.38;;
76167;SDS011;64927;48.214;16.378;2023-04-25T06:46:35;6.80;;;2.10;;
76167;SDS011;64927;48.214;16.378;2023-04-25T06:49:02;2.97;;;1.77;;
76167;SDS011;64927;48.214;16.378;2023-04-25T06:51:28;2.55;;;1.73;;
76167;SDS011;64927;48.214;16.378;2023-04-25T06:53:54;6.60;;;1.83;;
76167;SDS011;64927;48.214;16.378;2023-04-25T06:56:22;3.72;;;2.30;;
76167;SDS011;64927;48.214;16.378;2023-04-25T06:58:48;3.00;;;2.03;;
76167;SDS011;64927;48.214;16.378;2023-04-25T07:01:14;4.50;;;2.28;;
76167;SDS011;64927;48.214;16.378;2023-04-25T07:03:42;4.13;;;2.08;;
76167;SDS011;64927;48.214;16.378;2023-04-25T07:06:08;4.10;;;1.88;;
76167;SDS011;64927;48.214;16.378;2023-04-25T07:08:34;3.35;;;1.95;;
76167;SDS011;64927;48.214;16.378;2023-04-25T07:10:59;4.65;;;2.28;;
76167;SDS011;64927;48.214;16.378;2023-04-25T07:13:25;2.85;;;2.20;;
76167;SDS011;64927;48.214;16.378;2023-04-25T07:15:53;5.65;;;2.67;;
76167;SDS011;64927;48.214;16.378;2023-04-25T07:18:21;3.83;;;2.30;;
76167;SDS011;64927;48.214;16.378;2023-04-25T07:20:47;5.38;;;2.10;;
76167;SDS011;64927;48.214;16.378;2023-04-25T07:23:13;6.45;;;2.75;;
76167;SDS011;64927;48.214;16.378;2023-04-25T07:25:38;7.32;;;4.00;;
76167;SDS011;64927;48.214;16.378;2023-04-25T07:28:04;3.35;;;2.53;;
76167;SDS011;64927;48.214;16.378;2023-04-25T07:30:30;6.28;;;2.55;;
76167;SDS011;64927;48.214;16.378;2023-04-25T07:32:56;3.83;;;2.50;;
76167;SDS011;64927;48.214;16.378;2023-04-25T07:35:21;2.95;;;2.20;;
76167;SDS011;64927;48.214;16.378;2023-04-25T07:37:50;3.13;;;2.33;;
76167;SDS011;64927;48.214;16.378;2023-04-25T07:40:16;6.93;;;2.83;;
76167;SDS011;64927;48.214;16.378;2023-04-25T07:42:41;4.50;;;1.80;;
76167;SDS011;64927;48.214;16.378;2023-04-25T07:45:07;6.70;;;2.65;;
76167;SDS011;64927;48.214;16.378;2023-04-25T07:47:34;4.90;;;2.45;;
76167;SDS011;64927;48.214;16.378;2023-04-25T07:50:00;2.42;;;2.13;;
76167;SDS011;64927;48.214;16.378;2023-04-25T07:52:26;5.20;;;2.80;;
76167;SDS011;64927;48.214;16.378;2023-04-25T07:54:51;5.15;;;1.83;;
76167;SDS011;64927;48.214;16.378;2023-04-25T07:57:25;3.70;;;2.50;;
76167;SDS011;64927;48.214;16.378;2023-04-25T07:59:50;3.83;;;2.17;;
76167;SDS011;64927;48.214;16.378;2023-04-25T08:02:16;3.83;;;2.45;;
76167;SDS011;64927;48.214;16.378;2023-04-25T08:04:42;4.75;;;2.35;;
76167;SDS011;64927;48.214;16.378;2023-04-25T08:07:07;4.25;;;1.90;;
76167;SDS011;64927;48.214;16.378;2023-04-25T08:09:33;3.25;;;2.30;;
76167;SDS011;64927;48.214;16.378;2023-04-25T08:12:01;3.47;;;1.83;;
76167;SDS011;64927;48.214;16.378;2023-04-25T08:14:28;3.08;;;2.13;;
76167;SDS011;64927;48.214;16.378;2023-04-25T08:17:02;3.08;;;1.75;;
76167;SDS011;64927;48.214;16.378;2023-04-25T08:19:29;4.82;;;2.25;;
76167;SDS011;64927;48.214;16.378;2023-04-25T08:21:56;5.32;;;2.38;;
76167;SDS011;64927;48.214;16.378;2023-04-25T08:24:22;2.42;;;2.22;;
76167;SDS011;64927;48.214;16.378;2023-04-25T08:26:48;3.10;;;1.85;;
76167;SDS011;64927;48.214;16.378;2023-04-25T08:29:14;2.95;;;2.03;;
76167;SDS011;64927;48.214;16.378;2023-04-25T08:31:40;2.55;;;2.15;;
76167;SDS011;64927;48.214;16.378;2023-04-25T08:34:05;5.25;;;2.45;;
76167;SDS011;64927;48.214;16.378;2023-04-25T08:36:31;4.10;;;2.38;;
76167;SDS011;64927;48.214;16.378;2023-04-25T08:38:57;2.42;;;1.80;;
76167;SDS011;64927;48.214;16.378;2023-04-25T08:41:24;2.72;;;2.00;;
76167;SDS011;64927;48.214;16.378;2023-04-25T08:43:53;3.17;;;1.77;;
76167;SDS011;64927;48.214;16.378;2023-04-25T08:46:20;3.15;;;1.90;;
76167;SDS011;64927;48.214;16.378;2023-04-25T08:48:50;3.42;;;1.83;;
76167;SDS011;64927;48.214;16.378;2023-04-25T08:51:24;6.10;;;3.42;;
76167;SDS011;64927;48.214;16.378;2023-04-25T08:53:53;2.88;;;2.13;;
76167;SDS011;64927;48.214;16.378;2023-04-25T08:56:19;3.25;;;1.73;;
76167;SDS011;64927;48.214;16.378;2023-04-25T08:58:50;3.67;;;1.90;;
76167;SDS011;64927;48.214;16.378;2023-04-25T09:01:16;2.90;;;1.88;;
76167;SDS011;64927;48.214;16.378;2023-04-25T09:03:43;2.85;;;1.67;;
76167;SDS011;64927;48.214;16.378;2023-04-25T09:06:15;3.72;;;1.60;;
76167;SDS011;64927;48.214;16.378;2023-04-25T09:08:42;3.22;;;1.90;;
76167;SDS011;64927;48.214;16.378;2023-04-25T09:11:08;4.22;;;2.33;;
76167;SDS011;64927;48.214;16.378;2023-04-25T09:13:34;3.35;;;2.00;;
76167;SDS011;64927;48.214;16.378;2023-04-25T09:16:00;7.28;;;5.38;;
76167;SDS011;64927;48.214;16.378;2023-04-25T09:18:29;2.13;;;1.80;;
76167;SDS011;64927;48.214;16.378;2023-04-25T09:21:07;3.67;;;1.83;;
76167;SDS011;64927;48.214;16.378;2023-04-25T09:23:44;2.63;;;1.92;;
76167;SDS011;64927;48.214;16.378;2023-04-25T09:26:15;2.47;;;1.88;;
76167;SDS011;64927;48.214;16.378;2023-04-25T09:28:42;5.55;;;2.70;;
76167;SDS011;64927;48.214;16.378;2023-04-25T09:31:11;3.40;;;1.75;;
76167;SDS011;64927;48.214;16.378;2023-04-25T09:33:37;3.53;;;1.90;;
76167;SDS011;64927;48.214;16.378;2023-04-25T09:36:09;4.45;;;2.15;;
76167;SDS011;64927;48.214;16.378;2023-04-25T09:38:42;3.50;;;2.08;;
76167;SDS011;64927;48.214;16.378;2023-04-25T09:41:11;5.35;;;2.40;;
76167;SDS011;64927;48.214;16.378;2023-04-25T09:43:38;4.20;;;2.22;;
76167;SDS011;64927;48.214;16.378;2023-04-25T09:46:12;6.13;;;2.08;;
76167;SDS011;64927;48.214;16.378;2023-04-25T09:48:38;3.58;;;2.40;;
76167;SDS011;64927;48.214;16.378;2023-04-25T09:51:05;4.35;;;2.22;;
76167;SDS011;64927;48.214;16.378;2023-04-25T09:53:31;3.80;;;2.00;;
76167;SDS011;64927;48.214;16.378;2023-04-25T09:55:59;2.53;;;1.60;;
76167;SDS011;64927;48.214;16.378;2023-04-25T09:58:29;5.65;;;1.38;;
76167;SDS011;64927;48.214;16.378;2023-04-25T10:01:00;2.17;;;1.10;;
76167;SDS011;64927;48.214;16.378;2023-04-25T10:06:02;2.33;;;0.95;;
76167;SDS011;64927;48.214;16.378;2023-04-25T10:08:33;1.35;;;0.80;;
76167;SDS011;64927;48.214;16.378;2023-04-25T10:11:08;2.80;;;1.40;;
76167;SDS011;64927;48.214;16.378;2023-04-25T10:13:39;4.35;;;1.38;;
76167;SDS011;64927;48.214;16.378;2023-04-25T10:16:06;1.85;;;1.00;;
76167;SDS011;64927;48.214;16.378;2023-04-25T10:18:32;2.05;;;1.00;;
76167;SDS011;64927;48.214;16.378;2023-04-25T10:21:02;4.97;;;1.40;;
76167;SDS011;64927;48.214;16.378;2023-04-25T10:23:31;6.10;;;3.58;;
76167;SDS011;64927;48.214;16.378;2023-04-25T10:25:59;1.63;;;1.30;;
76167;SDS011;64927;48.214;16.378;2023-04-25T10:28:25;5.22;;;1.67;;
76167;SDS011;64927;48.214;16.378;2023-04-25T10:33:32;1.63;;;0.90;;
76167;SDS011;64927;48.214;16.378;2023-04-25T10:36:12;1.42;;;0.98;;
76167;SDS011;64927;48.214;16.378;2023-04-25T10:38:40;1.17;;;1.00;;
76167;SDS011;64927;48.214;16.378;2023-04-25T10:41:10;1.58;;;0.90;;
76167;SDS011;64927;48.214;16.378;2023-04-25T10:43:38;3.13;;;1.60;;
76167;SDS011;64927;48.214;16.378;2023-04-25T10:48:45;0.95;;;0.88;;
76167;SDS011;64927;48.214;16.378;2023-04-25T10:51:17;1.73;;;1.10;;
76167;SDS011;64927;48.214;16.378;2023-04-25T10:56:20;1.10;;;1.00;;
76167;SDS011;64927;48.214;16.378;2023-04-25T10:58:47;1.60;;;1.33;;
76167;SDS011;64927;48.214;16.378;2023-04-25T11:01:20;1.73;;;1.33;;
76167;SDS011;64927;48.214;16.378;2023-04-25T11:03:49;1.63;;;1.00;;
76167;SDS011;64927;48.214;16.378;2023-04-25T11:06:26;3.42;;;1.27;;
76167;SDS011;64927;48.214;16.378;2023-04-25T11:09:02;4.57;;;1.98;;
76167;SDS011;64927;48.214;16.378;2023-04-25T11:11:33;10.10;;;5.13;;
76167;SDS011;64927;48.214;16.378;2023-04-25T11:14:01;4.68;;;2.63;;
76167;SDS011;64927;48.214;16.378;2023-04-25T11:16:27;3.85;;;1.20;;
76167;SDS011;64927;48.214;16.378;2023-04-25T11:18:53;2.35;;;1.38;;
76167;SDS011;64927;48.214;16.378;2023-04-25T11:21:30;1.17;;;1.08;;
76167;SDS011;64927;48.214;16.378;2023-04-25T11:23:56;1.77;;;1.30;;
76167;SDS011;64927;48.214;16.378;2023-04-25T11:26:23;2.33;;;1.40;;
76167;SDS011;64927;48.214;16.378;2023-04-25T11:28:57;2.17;;;1.30;;
76167;SDS011;64927;48.214;16.378;2023-04-25T11:31:24;0.90;;;0.80;;
76167;SDS011;64927;48.214;16.378;2023-04-25T11:33:50;1.08;;;0.95;;
76167;SDS011;64927;48.214;16.378;2023-04-25T11:36:19;3.20;;;1.25;;
76167;SDS011;64927;48.214;16.378;2023-04-25T11:38:51;3.03;;;1.63;;
76167;SDS011;64927;48.214;16.378;2023-04-25T11:43:47;5.18;;;1.60;;
76167;SDS011;64927;48.214;16.378;2023-04-25T11:46:13;4.07;;;1.73;;
76167;SDS011;64927;48.214;16.378;2023-04-25T11:48:44;2.58;;;1.08;;
76167;SDS011;64927;48.214;16.378;2023-04-25T11:51:11;4.45;;;1.40;;
76167;SDS011;64927;48.214;16.378;2023-04-25T11:53:44;1.98;;;1.15;;
76167;SDS011;64927;48.214;16.378;2023-04-25T11:56:10;2.30;;;1.25;;
76167;SDS011;64927;48.214;16.378;2023-04-25T12:01:37;7.22;;;3.65;;
76167;SDS011;64927;48.214;16.378;2023-04-25T12:04:13;2.47;;;1.50;;
76167;SDS011;64927;48.214;16.378;2023-04-25T12:06:51;9.48;;;1.92;;
76167;SDS011;64927;48.214;16.378;2023-04-25T12:09:20;6.13;;;1.52;;
76167;SDS011;64927;48.214;16.378;2023-04-25T12:12:04;5.07;;;1.60;;
76167;SDS011;64927;48.214;16.378;2023-04-25T12:14:35;3.85;;;1.23;;
76167;SDS011;64927;48.214;16.378;2023-04-25T12:17:03;1.35;;;0.77;;
76167;SDS011;64927;48.214;16.378;2023-04-25T12:19:33;1.33;;;0.88;;
76167;SDS011;64927;48.214;16.378;2023-04-25T12:22:00;1.33;;;1.13;;
76167;SDS011;64927;48.214;16.378;2023-04-25T12:24:28;1.13;;;0.85;;
76167;SDS011;64927;48.214;16.378;2023-04-25T12:26:58;3.92;;;1.02;;
76167;SDS011;64927;48.214;16.378;2023-04-25T12:29:24;1.30;;;0.90;;
76167;SDS011;64927;48.214;16.378;2023-04-25T12:31:51;3.03;;;1.00;;
76167;SDS011;64927;48.214;16.378;2023-04-25T12:34:18;1.65;;;0.82;;
76167;SDS011;64927;48.214;16.378;2023-04-25T12:36:44;2.05;;;1.00;;
76167;SDS011;64927;48.214;16.378;2023-04-25T12:39:19;0.75;;;0.75;;
76167;SDS011;64927;48.214;16.378;2023-04-25T12:41:49;1.27;;;0.90;;
76167;SDS011;64927;48.214;16.378;2023-04-25T12:44:18;2.50;;;0.80;;
76167;SDS011;64927;48.214;16.378;2023-04-25T12:46:44;2.22;;;1.15;;
76167;SDS011;64927;48.214;16.378;2023-04-25T12:49:10;1.63;;;0.80;;
76167;SDS011;64927;48.214;16.378;2023-04-25T12:51:36;3.15;;;1.90;;
76167;SDS011;64927;48.214;16.378;2023-04-25T12:54:03;1.55;;;0.90;;
76167;SDS011;64927;48.214;16.378;2023-04-25T12:56:31;2.10;;;0.85;;
76167;SDS011;64927;48.214;16.378;2023-04-25T12:58:57;1.83;;;0.88;;
76167;SDS011;64927;48.214;16.378;2023-04-25T13:01:23;0.88;;;0.75;;
76167;SDS011;64927;48.214;16.378;2023-04-25T13:03:52;4.03;;;1.90;;
76167;SDS011;64927;48.214;16.378;2023-04-25T13:06:18;1.58;;;0.70;;
76167;SDS011;64927;48.214;16.378;2023-04-25T13:08:47;0.88;;;0.70;;
76167;SDS011;64927;48.214;16.378;2023-04-25T13:11:13;2.47;;;0.80;;
76167;SDS011;64927;48.214;16.378;2023-04-25T13:13:43;2.15;;;1.00;;
76167;SDS011;64927;48.214;16.378;2023-04-25T13:16:09;1.08;;;0.90;;
76167;SDS011;64927;48.214;16.378;2023-04-25T13:18:35;1.33;;;1.00;;
76167;SDS011;64927;48.214;16.378;2023-04-25T13:21:03;2.75;;;0.93;;
76167;SDS011;64927;48.214;16.378;2023-04-25T13:23:29;1.30;;;1.08;;
76167;SDS011;64927;48.214;16.378;2023-04-25T13:25:55;1.15;;;0.70;;
76167;SDS011;64927;48.214;16.378;2023-04-25T13:28:26;0.90;;;0.63;;
76167;SDS011;64927;48.214;16.378;2023-04-25T13:30:52;0.85;;;0.60;;
76167;SDS011;64927;48.214;16.378;2023-04-25T13:33:19;1.02;;;0.85;;
76167;SDS011;64927;48.214;16.378;2023-04-25T13:35:46;2.05;;;0.73;;
76167;SDS011;64927;48.214;16.378;2023-04-25T13:38:18;1.92;;;0.70;;
76167;SDS011;64927;48.214;16.378;2023-04-25T13:40:48;1.05;;;0.60;;
76167;SDS011;64927;48.214;16.378;2023-04-25T13:43:13;1.13;;;0.70;;
76167;SDS011;64927;48.214;16.378;2023-04-25T13:45:39;1.48;;;0.47;;
76167;SDS011;64927;48.214;16.378;2023-04-25T13:48:07;4.40;;;1.35;;
76167;SDS011;64927;48.214;16.378;2023-04-25T13:50:33;1.23;;;0.80;;
76167;SDS011;64927;48.214;16.378;2023-04-25T13:52:58;2.55;;;0.93;;
76167;SDS011;64927;48.214;16.378;2023-04-25T13:55:25;1.90;;;0.63;;
76167;SDS011;64927;48.214;16.378;2023-04-25T13:57:54;1.45;;;1.05;;
76167;SDS011;64927;48.214;16.378;2023-04-25T14:00:19;1.38;;;1.00;;
76167;SDS011;64927;48.214;16.378;2023-04-25T14:02:46;0.60;;;0.60;;
76167;SDS011;64927;48.214;16.378;2023-04-25T14:05:12;1.33;;;0.82;;
76167;SDS011;64927;48.214;16.378;2023-04-25T14:07:38;5.53;;;0.95;;
76167;SDS011;64927;48.214;16.378;2023-04-25T14:10:06;2.03;;;0.98;;
76167;SDS011;64927;48.214;16.378;2023-04-25T14:12:32;1.55;;;1.00;;
76167;SDS011;64927;48.214;16.378;2023-04-25T14:15:00;1.67;;;0.93;;
76167;SDS011;64927;48.214;16.378;2023-04-25T14:17:28;1.95;;;0.95;;
76167;SDS011;64927;48.214;16.378;2023-04-25T14:19:54;1.70;;;0.85;;
76167;SDS011;64927;48.214;16.378;2023-04-25T14:22:23;0.63;;;0.52;;
76167;SDS011;64927;48.214;16.378;2023-04-25T14:24:48;0.50;;;0.50;;
76167;SDS011;64927;48.214;16.378;2023-04-25T14:27:17;1.38;;;0.70;;
76167;SDS011;64927;48.214;16.378;2023-04-25T14:29:42;0.80;;;0.40;;
76167;SDS011;64927;48.214;16.378;2023-04-25T14:32:08;0.73;;;0.50;;
76167;SDS011;64927;48.214;16.378;2023-04-25T14:34:36;1.63;;;0.73;;
76167;SDS011;64927;48.214;16.378;2023-04-25T14:37:02;1.27;;;0.80;;
76167;SDS011;64927;48.214;16.378;2023-04-25T14:39:27;2.35;;;0.60;;
76167;SDS011;64927;48.214;16.378;2023-04-25T14:41:53;1.20;;;0.88;;
76167;SDS011;64927;48.214;16.378;2023-04-25T14:44:19;0.82;;;0.63;;
76167;SDS011;64927;48.214;16.378;2023-04-25T14:46:45;1.02;;;0.85;;
76167;SDS011;64927;48.214;16.378;2023-04-25T14:49:10;1.45;;;0.60;;